sensor_id;sensor_type;location;lat;lon;timestamp;P1;durP1;ratioP1;P2;durP2;ratioP2
52790;SDS011;41253;46.856;-71.574;2022-08-18T00:02:05;3.70;;;2.80;;
52790;SDS011;41253;46.856;-71.574;2022-08-18T00:04:36;3.70;;;3.10;;
52790;SDS011;41253;46.856;-71.574;2022-08-18T00:07:04;6.00;;;3.30;;
52790;SDS011;41253;46.856;-71.574;2022-08-18T00:09:33;5.03;;;3.10;;
52790;SDS011;41253;46.856;-71.574;2022-08-18T00:12:02;4.25;;;3.15;;
52790;SDS011;41253;46.856;-71.574;2022-08-18T00:14:31;5.25;;;3.13;;
52790;SDS011;41253;46.856;-71.574;2022-08-18T00:16:57;5.32;;;2.75;;
52790;SDS011;41253;46.856;-71.574;2022-08-18T00:19:24;5.28;;;3.35;;
52790;SDS011;41253;46.856;-71.574;2022-08-18T00:21:51;5.97;;;3.00;;
52790;SDS011;41253;46.856;-71.574;2022-08-18T00:24:18;6.13;;;3.03;;
52790;SDS011;41253;46.856;-71.574;2022-08-18T00:26:44;4.90;;;2.83;;
52790;SDS011;41253;46.856;-71.574;2022-08-18T00:29:10;5.00;;;3.30;;
52790;SDS011;41253;46.856;-71.574;2022-08-18T00:31:37;4.40;;;3.40;;
52790;SDS011;41253;46.856;-71.574;2022-08-18T00:34:03;4.80;;;3.10;;
52790;SDS011;41253;46.856;-71.574;2022-08-18T00:36:30;5.28;;;3.60;;
52790;SDS011;41253;46.856;-71.574;2022-08-18T00:38:59;4.45;;;3.17;;
52790;SDS011;41253;46.856;-71.574;2022-08-18T00:41:26;4.13;;;2.85;;
52790;SDS011;41253;46.856;-71.574;2022-08-18T00:43:53;4.15;;;2.92;;
52790;SDS011;41253;46.856;-71.574;2022-08-18T00:46:24;3.78;;;3.05;;
52790;SDS011;41253;46.856;-71.574;2022-08-18T00:48:58;5.78;;;3.50;;
52790;SDS011;41253;46.856;-71.574;2022-08-18T00:51:27;3.90;;;3.10;;
52790;SDS011;41253;46.856;-71.574;2022-08-18T00:54:20;4.00;;;3.13;;
52790;SDS011;41253;46.856;-71.574;2022-08-18T00:56:51;4.13;;;2.95;;
52790;SDS011;41253;46.856;-71.574;2022-08-18T00:59:23;5.65;;;3.50;;
52790;SDS011;41253;46.856;-71.574;2022-08-18T01:01:51;7.00;;;4.28;;
52790;SDS011;41253;46.856;-71.574;2022-08-18T01:04:27;5.55;;;3.33;;
52790;SDS011;41253;46.856;-71.574;2022-08-18T01:07:06;5.75;;;3.33;;
52790;SDS011;41253;46.856;-71.574;2022-08-18T01:09:37;7.15;;;3.75;;
52790;SDS011;41253;46.856;-71.574;2022-08-18T01:12:03;4.80;;;3.70;;
52790;SDS011;41253;46.856;-71.574;2022-08-18T01:14:30;7.13;;;4.10;;
52790;SDS011;41253;46.856;-71.574;2022-08-18T01:16:56;7.57;;;3.80;;
52790;SDS011;41253;46.856;-71.574;2022-08-18T01:19:41;4.65;;;3.80;;
52790;SDS011;41253;46.856;-71.574;2022-08-18T01:23:13;9.63;;;4.43;;
52790;SDS011;41253;46.856;-71.574;2022-08-18T01:25:33;8.20;;;3.83;;
52790;SDS011;41253;46.856;-71.574;2022-08-18T01:28:19;5.07;;;3.50;;
52790;SDS011;41253;46.856;-71.574;2022-08-18T01:30:49;5.75;;;3.88;;
52790;SDS011;41253;46.856;-71.574;2022-08-18T01:33:26;6.18;;;4.15;;
52790;SDS011;41253;46.856;-71.574;2022-08-18T01:36:10;4.35;;;3.70;;
52790;SDS011;41253;46.856;-71.574;2022-08-18T01:38:46;6.75;;;4.60;;
52790;SDS011;41253;46.856;-71.574;2022-08-18T01:41:19;4.65;;;4.22;;
52790;SDS011;41253;46.856;-71.574;2022-08-18T01:43:46;6.22;;;4.00;;
52790;SDS011;41253;46.856;-71.574;2022-08-18T01:46:17;7.40;;;4.53;;
52790;SDS011;41253;46.856;-71.574;2022-08-18T01:48:45;4.85;;;4.00;;
52790;SDS011;41253;46.856;-71.574;2022-08-18T01:51:13;6.03;;;4.13;;
52790;SDS011;41253;46.856;-71.574;2022-08-18T01:53:42;5.53;;;4.32;;
52790;SDS011;41253;46.856;-71.574;2022-08-18T01:56:09;7.63;;;4.90;;
52790;SDS011;41253;46.856;-71.574;2022-08-18T01:58:35;8.48;;;4.60;;
52790;SDS011;41253;46.856;-71.574;2022-08-18T02:01:02;7.50;;;4.70;;
52790;SDS011;41253;46.856;-71.574;2022-08-18T02:03:30;4.55;;;3.78;;
52790;SDS011;41253;46.856;-71.574;2022-08-18T02:06:03;7.35;;;4.43;;
52790;SDS011;41253;46.856;-71.574;2022-08-18T02:08:34;6.80;;;4.20;;
52790;SDS011;41253;46.856;-71.574;2022-08-18T02:11:01;6.53;;;4.88;;
52790;SDS011;41253;46.856;-71.574;2022-08-18T02:13:28;7.22;;;4.60;;
52790;SDS011;41253;46.856;-71.574;2022-08-18T02:15:54;7.32;;;5.00;;
52790;SDS011;41253;46.856;-71.574;2022-08-18T02:18:23;7.82;;;4.55;;
52790;SDS011;41253;46.856;-71.574;2022-08-18T02:20:52;5.82;;;4.32;;
52790;SDS011;41253;46.856;-71.574;2022-08-18T02:23:19;7.25;;;4.30;;
52790;SDS011;41253;46.856;-71.574;2022-08-18T02:25:46;6.00;;;4.75;;
52790;SDS011;41253;46.856;-71.574;2022-08-18T02:28:12;7.07;;;3.97;;
52790;SDS011;41253;46.856;-71.574;2022-08-18T02:30:39;5.25;;;4.28;;
52790;SDS011;41253;46.856;-71.574;2022-08-18T02:33:06;8.32;;;5.00;;
52790;SDS011;41253;46.856;-71.574;2022-08-18T02:35:34;6.72;;;4.82;;
52790;SDS011;41253;46.856;-71.574;2022-08-18T02:38:03;7.57;;;4.70;;
52790;SDS011;41253;46.856;-71.574;2022-08-18T02:40:31;6.63;;;4.75;;
52790;SDS011;41253;46.856;-71.574;2022-08-18T02:43:03;6.72;;;4.18;;
52790;SDS011;41253;46.856;-71.574;2022-08-18T02:45:33;5.88;;;4.28;;
52790;SDS011;41253;46.856;-71.574;2022-08-18T02:48:04;6.85;;;4.88;;
52790;SDS011;41253;46.856;-71.574;2022-08-18T02:50:30;6.50;;;4.85;;
52790;SDS011;41253;46.856;-71.574;2022-08-18T02:52:57;5.55;;;4.28;;
52790;SDS011;41253;46.856;-71.574;2022-08-18T02:55:26;6.22;;;4.25;;
52790;SDS011;41253;46.856;-71.574;2022-08-18T02:57:53;6.97;;;4.47;;
52790;SDS011;41253;46.856;-71.574;2022-08-18T03:00:19;5.90;;;4.68;;
52790;SDS011;41253;46.856;-71.574;2022-08-18T03:02:49;5.28;;;4.07;;
52790;SDS011;41253;46.856;-71.574;2022-08-18T03:05:17;8.18;;;4.80;;
52790;SDS011;41253;46.856;-71.574;2022-08-18T03:07:45;7.75;;;4.43;;
52790;SDS011;41253;46.856;-71.574;2022-08-18T03:10:11;5.95;;;4.28;;
52790;SDS011;41253;46.856;-71.574;2022-08-18T03:12:42;6.57;;;4.10;;
52790;SDS011;41253;46.856;-71.574;2022-08-18T03:15:08;5.15;;;4.22;;
52790;SDS011;41253;46.856;-71.574;2022-08-18T03:17:37;7.55;;;4.03;;
52790;SDS011;41253;46.856;-71.574;2022-08-18T03:20:04;5.20;;;4.60;;
52790;SDS011;41253;46.856;-71.574;2022-08-18T03:22:31;5.93;;;4.47;;
52790;SDS011;41253;46.856;-71.574;2022-08-18T03:24:58;6.72;;;4.10;;
52790;SDS011;41253;46.856;-71.574;2022-08-18T03:27:25;8.43;;;5.00;;
52790;SDS011;41253;46.856;-71.574;2022-08-18T03:29:51;6.60;;;4.00;;
52790;SDS011;41253;46.856;-71.574;2022-08-18T03:32:18;6.35;;;4.32;;
52790;SDS011;41253;46.856;-71.574;2022-08-18T03:34:44;6.60;;;4.57;;
52790;SDS011;41253;46.856;-71.574;2022-08-18T03:37:10;4.80;;;4.30;;
52790;SDS011;41253;46.856;-71.574;2022-08-18T03:39:37;5.47;;;4.72;;
52790;SDS011;41253;46.856;-71.574;2022-08-18T03:42:04;6.75;;;4.68;;
52790;SDS011;41253;46.856;-71.574;2022-08-18T03:44:32;6.82;;;4.65;;
52790;SDS011;41253;46.856;-71.574;2022-08-18T03:47:07;5.95;;;4.90;;
52790;SDS011;41253;46.856;-71.574;2022-08-18T03:49:35;6.25;;;4.30;;
52790;SDS011;41253;46.856;-71.574;2022-08-18T03:52:02;7.07;;;4.90;;
52790;SDS011;41253;46.856;-71.574;2022-08-18T03:54:32;6.22;;;4.45;;
52790;SDS011;41253;46.856;-71.574;2022-08-18T03:56:58;7.32;;;4.53;;
52790;SDS011;41253;46.856;-71.574;2022-08-18T03:59:25;5.72;;;3.80;;
52790;SDS011;41253;46.856;-71.574;2022-08-18T04:01:52;6.78;;;4.18;;
52790;SDS011;41253;46.856;-71.574;2022-08-18T04:04:20;5.35;;;3.58;;
52790;SDS011;41253;46.856;-71.574;2022-08-18T04:06:57;4.50;;;3.50;;
52790;SDS011;41253;46.856;-71.574;2022-08-18T04:09:29;5.65;;;3.90;;
52790;SDS011;41253;46.856;-71.574;2022-08-18T04:11:57;5.80;;;4.28;;
52790;SDS011;41253;46.856;-71.574;2022-08-18T04:14:34;5.70;;;4.10;;
52790;SDS011;41253;46.856;-71.574;2022-08-18T04:17:02;6.68;;;4.43;;
52790;SDS011;41253;46.856;-71.574;2022-08-18T04:19:28;4.25;;;3.85;;
52790;SDS011;41253;46.856;-71.574;2022-08-18T04:21:56;5.22;;;3.75;;
52790;SDS011;41253;46.856;-71.574;2022-08-18T04:24:23;5.55;;;3.95;;
52790;SDS011;41253;46.856;-71.574;2022-08-18T04:26:51;5.03;;;3.97;;
52790;SDS011;41253;46.856;-71.574;2022-08-18T04:29:18;5.47;;;4.72;;
52790;SDS011;41253;46.856;-71.574;2022-08-18T04:31:48;4.88;;;4.38;;
52790;SDS011;41253;46.856;-71.574;2022-08-18T04:34:16;6.25;;;5.00;;
52790;SDS011;41253;46.856;-71.574;2022-08-18T04:36:44;5.15;;;4.53;;
52790;SDS011;41253;46.856;-71.574;2022-08-18T04:39:11;6.90;;;4.70;;
52790;SDS011;41253;46.856;-71.574;2022-08-18T04:41:39;5.53;;;3.95;;
52790;SDS011;41253;46.856;-71.574;2022-08-18T04:44:08;5.55;;;4.35;;
52790;SDS011;41253;46.856;-71.574;2022-08-18T04:46:40;6.13;;;4.40;;
52790;SDS011;41253;46.856;-71.574;2022-08-18T04:49:08;5.78;;;4.15;;
52790;SDS011;41253;46.856;-71.574;2022-08-18T04:51:38;7.07;;;4.95;;
52790;SDS011;41253;46.856;-71.574;2022-08-18T04:54:06;6.50;;;5.18;;
52790;SDS011;41253;46.856;-71.574;2022-08-18T04:56:34;6.60;;;4.60;;
52790;SDS011;41253;46.856;-71.574;2022-08-18T04:59:04;6.40;;;4.45;;
52790;SDS011;41253;46.856;-71.574;2022-08-18T05:01:39;7.00;;;4.68;;
52790;SDS011;41253;46.856;-71.574;2022-08-18T05:04:10;5.07;;;4.10;;
52790;SDS011;41253;46.856;-71.574;2022-08-18T05:06:37;4.80;;;4.18;;
52790;SDS011;41253;46.856;-71.574;2022-08-18T05:09:05;5.15;;;4.20;;
52790;SDS011;41253;46.856;-71.574;2022-08-18T05:11:33;5.03;;;3.92;;
52790;SDS011;41253;46.856;-71.574;2022-08-18T05:14:01;6.40;;;4.40;;
52790;SDS011;41253;46.856;-71.574;2022-08-18T05:16:30;7.28;;;4.65;;
52790;SDS011;41253;46.856;-71.574;2022-08-18T05:19:00;4.47;;;3.90;;
52790;SDS011;41253;46.856;-71.574;2022-08-18T05:21:36;6.40;;;4.75;;
52790;SDS011;41253;46.856;-71.574;2022-08-18T05:24:06;4.35;;;3.95;;
52790;SDS011;41253;46.856;-71.574;2022-08-18T05:26:34;6.10;;;4.18;;
52790;SDS011;41253;46.856;-71.574;2022-08-18T05:29:01;6.10;;;4.35;;
52790;SDS011;41253;46.856;-71.574;2022-08-18T05:31:28;5.97;;;4.55;;
52790;SDS011;41253;46.856;-71.574;2022-08-18T05:33:56;4.47;;;3.80;;
52790;SDS011;41253;46.856;-71.574;2022-08-18T05:36:33;5.10;;;4.55;;
52790;SDS011;41253;46.856;-71.574;2022-08-18T05:41:55;6.28;;;4.25;;
52790;SDS011;41253;46.856;-71.574;2022-08-18T05:44:53;3.97;;;3.40;;
52790;SDS011;41253;46.856;-71.574;2022-08-18T05:47:24;7.85;;;4.85;;
52790;SDS011;41253;46.856;-71.574;2022-08-18T05:49:56;5.90;;;4.13;;
52790;SDS011;41253;46.856;-71.574;2022-08-18T05:52:32;6.13;;;4.22;;
52790;SDS011;41253;46.856;-71.574;2022-08-18T05:55:15;6.18;;;3.63;;
52790;SDS011;41253;46.856;-71.574;2022-08-18T06:01:23;4.50;;;3.75;;
52790;SDS011;41253;46.856;-71.574;2022-08-18T06:03:55;5.47;;;4.03;;
52790;SDS011;41253;46.856;-71.574;2022-08-18T06:06:30;4.18;;;3.75;;
52790;SDS011;41253;46.856;-71.574;2022-08-18T06:09:13;5.13;;;4.10;;
52790;SDS011;41253;46.856;-71.574;2022-08-18T06:11:42;4.30;;;3.90;;
52790;SDS011;41253;46.856;-71.574;2022-08-18T06:14:09;7.90;;;4.22;;
52790;SDS011;41253;46.856;-71.574;2022-08-18T06:16:41;5.13;;;4.63;;
52790;SDS011;41253;46.856;-71.574;2022-08-18T06:20:03;4.63;;;4.10;;
52790;SDS011;41253;46.856;-71.574;2022-08-18T06:22:40;4.78;;;4.28;;
52790;SDS011;41253;46.856;-71.574;2022-08-18T06:27:52;8.45;;;4.05;;
52790;SDS011;41253;46.856;-71.574;2022-08-18T06:30:28;5.50;;;4.32;;
52790;SDS011;41253;46.856;-71.574;2022-08-18T06:39:02;7.20;;;4.57;;
52790;SDS011;41253;46.856;-71.574;2022-08-18T06:41:37;4.53;;;3.80;;
52790;SDS011;41253;46.856;-71.574;2022-08-18T06:44:08;9.23;;;4.80;;
52790;SDS011;41253;46.856;-71.574;2022-08-18T06:52:17;4.25;;;2.95;;
52790;SDS011;41253;46.856;-71.574;2022-08-18T06:54:45;5.75;;;3.80;;
52790;SDS011;41253;46.856;-71.574;2022-08-18T06:57:26;5.80;;;3.78;;
52790;SDS011;41253;46.856;-71.574;2022-08-18T07:02:51;4.95;;;3.83;;
52790;SDS011;41253;46.856;-71.574;2022-08-18T07:05:24;6.82;;;4.10;;
52790;SDS011;41253;46.856;-71.574;2022-08-18T07:10:54;7.07;;;3.75;;
52790;SDS011;41253;46.856;-71.574;2022-08-18T07:13:36;4.03;;;3.35;;
52790;SDS011;41253;46.856;-71.574;2022-08-18T07:16:22;7.45;;;4.38;;
52790;SDS011;41253;46.856;-71.574;2022-08-18T07:19:12;4.68;;;3.20;;
52790;SDS011;41253;46.856;-71.574;2022-08-18T07:21:41;5.95;;;3.50;;
52790;SDS011;41253;46.856;-71.574;2022-08-18T07:24:17;4.82;;;3.20;;
52790;SDS011;41253;46.856;-71.574;2022-08-18T07:29:35;3.40;;;2.95;;
52790;SDS011;41253;46.856;-71.574;2022-08-18T07:32:13;3.80;;;2.58;;
52790;SDS011;41253;46.856;-71.574;2022-08-18T07:34:45;4.28;;;3.53;;
52790;SDS011;41253;46.856;-71.574;2022-08-18T07:39:58;6.18;;;3.85;;
52790;SDS011;41253;46.856;-71.574;2022-08-18T07:42:47;3.65;;;3.22;;
52790;SDS011;41253;46.856;-71.574;2022-08-18T07:45:42;4.07;;;3.05;;
52790;SDS011;41253;46.856;-71.574;2022-08-18T07:59:25;5.50;;;2.65;;
52790;SDS011;41253;46.856;-71.574;2022-08-18T08:02:09;2.50;;;2.28;;
52790;SDS011;41253;46.856;-71.574;2022-08-18T08:07:25;4.53;;;2.88;;
52790;SDS011;41253;46.856;-71.574;2022-08-18T08:10:04;4.30;;;3.17;;
52790;SDS011;41253;46.856;-71.574;2022-08-18T08:13:10;3.15;;;2.40;;
52790;SDS011;41253;46.856;-71.574;2022-08-18T08:21:20;4.65;;;3.25;;
52790;SDS011;41253;46.856;-71.574;2022-08-18T08:23:54;4.50;;;3.13;;
52790;SDS011;41253;46.856;-71.574;2022-08-18T08:35:20;5.72;;;3.30;;
52790;SDS011;41253;46.856;-71.574;2022-08-18T08:38:03;4.68;;;3.45;;
52790;SDS011;41253;46.856;-71.574;2022-08-18T08:40:56;5.82;;;3.53;;
52790;SDS011;41253;46.856;-71.574;2022-08-18T08:43:31;5.97;;;3.67;;
52790;SDS011;41253;46.856;-71.574;2022-08-18T08:48:29;4.03;;;3.45;;
52790;SDS011;41253;46.856;-71.574;2022-08-18T08:51:00;4.57;;;3.35;;
52790;SDS011;41253;46.856;-71.574;2022-08-18T08:53:38;4.90;;;3.55;;
52790;SDS011;41253;46.856;-71.574;2022-08-18T08:56:33;4.35;;;3.17;;
52790;SDS011;41253;46.856;-71.574;2022-08-18T08:59:11;9.32;;;3.20;;
52790;SDS011;41253;46.856;-71.574;2022-08-18T09:12:41;7.53;;;4.85;;
52790;SDS011;41253;46.856;-71.574;2022-08-18T09:15:15;6.07;;;4.80;;
52790;SDS011;41253;46.856;-71.574;2022-08-18T09:23:41;9.65;;;5.10;;
52790;SDS011;41253;46.856;-71.574;2022-08-18T09:26:22;7.18;;;5.13;;
52790;SDS011;41253;46.856;-71.574;2022-08-18T09:37:41;8.05;;;5.55;;
52790;SDS011;41253;46.856;-71.574;2022-08-18T09:40:47;8.93;;;6.70;;
52790;SDS011;41253;46.856;-71.574;2022-08-18T09:43:55;13.05;;;7.53;;
52790;SDS011;41253;46.856;-71.574;2022-08-18T09:51:56;11.52;;;7.13;;
52790;SDS011;41253;46.856;-71.574;2022-08-18T09:54:28;8.35;;;6.28;;
52790;SDS011;41253;46.856;-71.574;2022-08-18T09:56:57;11.40;;;6.60;;
52790;SDS011;41253;46.856;-71.574;2022-08-18T10:02:59;12.77;;;7.28;;
52790;SDS011;41253;46.856;-71.574;2022-08-18T10:07:43;14.23;;;7.80;;
52790;SDS011;41253;46.856;-71.574;2022-08-18T10:10:30;11.88;;;7.90;;
52790;SDS011;41253;46.856;-71.574;2022-08-18T10:24:21;7.82;;;6.28;;
52790;SDS011;41253;46.856;-71.574;2022-08-18T10:26:57;10.90;;;6.85;;
52790;SDS011;41253;46.856;-71.574;2022-08-18T10:39:47;6.95;;;5.63;;
52790;SDS011;41253;46.856;-71.574;2022-08-18T10:43:18;12.85;;;7.55;;
52790;SDS011;41253;46.856;-71.574;2022-08-18T10:50:41;9.82;;;7.68;;
52790;SDS011;41253;46.856;-71.574;2022-08-18T10:53:21;8.98;;;6.95;;
52790;SDS011;41253;46.856;-71.574;2022-08-18T10:56:10;9.07;;;6.75;;
52790;SDS011;41253;46.856;-71.574;2022-08-18T10:59:09;10.52;;;7.65;;
52790;SDS011;41253;46.856;-71.574;2022-08-18T11:06:59;9.40;;;7.10;;
52790;SDS011;41253;46.856;-71.574;2022-08-18T11:09:31;8.35;;;5.68;;
52790;SDS011;41253;46.856;-71.574;2022-08-18T11:11:59;6.32;;;4.97;;
52790;SDS011;41253;46.856;-71.574;2022-08-18T11:19:55;6.07;;;4.32;;
52790;SDS011;41253;46.856;-71.574;2022-08-18T11:24:53;5.32;;;4.43;;
52790;SDS011;41253;46.856;-71.574;2022-08-18T11:27:21;7.60;;;4.35;;
52790;SDS011;41253;46.856;-71.574;2022-08-18T11:29:53;5.45;;;4.40;;
52790;SDS011;41253;46.856;-71.574;2022-08-18T11:32:30;4.75;;;4.22;;
52790;SDS011;41253;46.856;-71.574;2022-08-18T11:40:11;4.70;;;3.95;;
52790;SDS011;41253;46.856;-71.574;2022-08-18T11:43:02;6.57;;;4.32;;
52790;SDS011;41253;46.856;-71.574;2022-08-18T11:45:32;4.20;;;3.80;;
52790;SDS011;41253;46.856;-71.574;2022-08-18T11:58:44;3.97;;;3.40;;
52790;SDS011;41253;46.856;-71.574;2022-08-18T12:06:34;4.93;;;3.63;;
52790;SDS011;41253;46.856;-71.574;2022-08-18T12:09:15;6.40;;;3.50;;
52790;SDS011;41253;46.856;-71.574;2022-08-18T12:11:50;5.28;;;3.35;;
52790;SDS011;41253;46.856;-71.574;2022-08-18T12:14:23;4.35;;;3.42;;
52790;SDS011;41253;46.856;-71.574;2022-08-18T12:16:52;5.25;;;3.90;;
52790;SDS011;41253;46.856;-71.574;2022-08-18T12:19:19;4.50;;;4.03;;
52790;SDS011;41253;46.856;-71.574;2022-08-18T12:21:54;5.65;;;3.45;;
52790;SDS011;41253;46.856;-71.574;2022-08-18T12:24:29;4.57;;;3.72;;
52790;SDS011;41253;46.856;-71.574;2022-08-18T12:26:57;4.75;;;3.42;;
52790;SDS011;41253;46.856;-71.574;2022-08-18T12:29:24;7.57;;;4.13;;
52790;SDS011;41253;46.856;-71.574;2022-08-18T12:31:53;6.03;;;3.25;;
52790;SDS011;41253;46.856;-71.574;2022-08-18T12:34:21;4.47;;;3.25;;
52790;SDS011;41253;46.856;-71.574;2022-08-18T12:36:53;5.03;;;3.28;;
52790;SDS011;41253;46.856;-71.574;2022-08-18T12:39:22;6.20;;;3.13;;
52790;SDS011;41253;46.856;-71.574;2022-08-18T12:41:49;4.40;;;3.13;;
52790;SDS011;41253;46.856;-71.574;2022-08-18T12:44:15;5.15;;;3.58;;
52790;SDS011;41253;46.856;-71.574;2022-08-18T12:46:41;4.07;;;3.40;;
52790;SDS011;41253;46.856;-71.574;2022-08-18T12:49:19;3.90;;;3.13;;
52790;SDS011;41253;46.856;-71.574;2022-08-18T12:51:49;4.60;;;3.10;;
52790;SDS011;41253;46.856;-71.574;2022-08-18T12:54:17;3.92;;;3.17;;
52790;SDS011;41253;46.856;-71.574;2022-08-18T12:56:44;8.57;;;3.47;;
52790;SDS011;41253;46.856;-71.574;2022-08-18T12:59:13;4.70;;;3.40;;
52790;SDS011;41253;46.856;-71.574;2022-08-18T13:01:39;7.03;;;3.55;;
52790;SDS011;41253;46.856;-71.574;2022-08-18T13:04:06;4.22;;;3.35;;
52790;SDS011;41253;46.856;-71.574;2022-08-18T13:06:33;7.00;;;3.90;;
52790;SDS011;41253;46.856;-71.574;2022-08-18T13:09:02;4.63;;;3.30;;
52790;SDS011;41253;46.856;-71.574;2022-08-18T13:11:29;5.57;;;4.22;;
52790;SDS011;41253;46.856;-71.574;2022-08-18T13:13:55;4.57;;;3.33;;
52790;SDS011;41253;46.856;-71.574;2022-08-18T13:16:22;6.10;;;4.20;;
52790;SDS011;41253;46.856;-71.574;2022-08-18T13:18:50;4.32;;;3.85;;
52790;SDS011;41253;46.856;-71.574;2022-08-18T13:21:16;5.53;;;3.78;;
52790;SDS011;41253;46.856;-71.574;2022-08-18T13:23:42;4.35;;;3.00;;
52790;SDS011;41253;46.856;-71.574;2022-08-18T13:26:12;3.53;;;3.08;;
52790;SDS011;41253;46.856;-71.574;2022-08-18T13:28:50;4.85;;;3.55;;
52790;SDS011;41253;46.856;-71.574;2022-08-18T13:31:16;5.00;;;3.25;;
52790;SDS011;41253;46.856;-71.574;2022-08-18T13:33:42;4.28;;;3.13;;
52790;SDS011;41253;46.856;-71.574;2022-08-18T13:36:09;4.38;;;3.30;;
52790;SDS011;41253;46.856;-71.574;2022-08-18T13:38:35;4.60;;;3.65;;
52790;SDS011;41253;46.856;-71.574;2022-08-18T13:41:02;4.40;;;3.55;;
52790;SDS011;41253;46.856;-71.574;2022-08-18T13:43:31;6.10;;;3.40;;
52790;SDS011;41253;46.856;-71.574;2022-08-18T13:46:00;3.58;;;2.88;;
52790;SDS011;41253;46.856;-71.574;2022-08-18T13:48:28;3.72;;;3.35;;
52790;SDS011;41253;46.856;-71.574;2022-08-18T13:50:55;6.15;;;3.40;;
52790;SDS011;41253;46.856;-71.574;2022-08-18T13:53:24;3.60;;;3.08;;
52790;SDS011;41253;46.856;-71.574;2022-08-18T13:55:51;4.28;;;3.58;;
52790;SDS011;41253;46.856;-71.574;2022-08-18T13:58:18;6.03;;;3.65;;
52790;SDS011;41253;46.856;-71.574;2022-08-18T14:00:44;5.43;;;2.70;;
52790;SDS011;41253;46.856;-71.574;2022-08-18T14:03:11;5.28;;;3.33;;
52790;SDS011;41253;46.856;-71.574;2022-08-18T14:05:37;5.45;;;3.10;;
52790;SDS011;41253;46.856;-71.574;2022-08-18T14:08:03;5.95;;;3.38;;
52790;SDS011;41253;46.856;-71.574;2022-08-18T14:10:30;8.15;;;3.55;;
52790;SDS011;41253;46.856;-71.574;2022-08-18T14:12:58;4.15;;;3.03;;
52790;SDS011;41253;46.856;-71.574;2022-08-18T14:15:26;3.25;;;2.95;;
52790;SDS011;41253;46.856;-71.574;2022-08-18T14:17:53;6.13;;;3.58;;
52790;SDS011;41253;46.856;-71.574;2022-08-18T14:20:19;6.00;;;3.55;;
52790;SDS011;41253;46.856;-71.574;2022-08-18T14:23:04;5.22;;;3.38;;
52790;SDS011;41253;46.856;-71.574;2022-08-18T14:25:48;3.97;;;3.20;;
52790;SDS011;41253;46.856;-71.574;2022-08-18T14:28:34;5.78;;;3.60;;
52790;SDS011;41253;46.856;-71.574;2022-08-18T14:31:01;3.50;;;3.20;;
52790;SDS011;41253;46.856;-71.574;2022-08-18T14:33:28;3.40;;;3.00;;
52790;SDS011;41253;46.856;-71.574;2022-08-18T14:35:56;3.28;;;2.67;;
52790;SDS011;41253;46.856;-71.574;2022-08-18T14:38:23;5.20;;;2.80;;
52790;SDS011;41253;46.856;-71.574;2022-08-18T14:40:49;3.67;;;2.50;;
52790;SDS011;41253;46.856;-71.574;2022-08-18T14:43:17;4.85;;;2.90;;
52790;SDS011;41253;46.856;-71.574;2022-08-18T14:45:46;5.25;;;3.35;;
52790;SDS011;41253;46.856;-71.574;2022-08-18T14:48:14;4.35;;;3.58;;
52790;SDS011;41253;46.856;-71.574;2022-08-18T14:50:45;4.68;;;2.72;;
52790;SDS011;41253;46.856;-71.574;2022-08-18T14:53:17;5.22;;;2.90;;
52790;SDS011;41253;46.856;-71.574;2022-08-18T14:55:45;6.20;;;3.20;;
52790;SDS011;41253;46.856;-71.574;2022-08-18T14:58:22;3.83;;;2.65;;
52790;SDS011;41253;46.856;-71.574;2022-08-18T15:00:57;4.13;;;2.67;;
52790;SDS011;41253;46.856;-71.574;2022-08-18T15:03:32;5.18;;;2.85;;
52790;SDS011;41253;46.856;-71.574;2022-08-18T15:06:01;2.90;;;2.30;;
52790;SDS011;41253;46.856;-71.574;2022-08-18T15:08:30;5.60;;;2.90;;
52790;SDS011;41253;46.856;-71.574;2022-08-18T15:10:58;3.95;;;2.50;;
52790;SDS011;41253;46.856;-71.574;2022-08-18T15:13:25;3.83;;;2.10;;
52790;SDS011;41253;46.856;-71.574;2022-08-18T15:15:52;3.33;;;3.00;;
52790;SDS011;41253;46.856;-71.574;2022-08-18T15:18:20;4.20;;;2.80;;
52790;SDS011;41253;46.856;-71.574;2022-08-18T15:20:47;2.90;;;2.58;;
52790;SDS011;41253;46.856;-71.574;2022-08-18T15:23:31;2.90;;;2.47;;
52790;SDS011;41253;46.856;-71.574;2022-08-18T15:26:17;4.40;;;2.45;;
52790;SDS011;41253;46.856;-71.574;2022-08-18T15:28:46;4.53;;;2.40;;
52790;SDS011;41253;46.856;-71.574;2022-08-18T15:31:12;2.55;;;2.25;;
52790;SDS011;41253;46.856;-71.574;2022-08-18T15:33:39;2.45;;;2.03;;
52790;SDS011;41253;46.856;-71.574;2022-08-18T15:36:06;2.75;;;1.88;;
52790;SDS011;41253;46.856;-71.574;2022-08-18T15:38:33;2.75;;;2.40;;
52790;SDS011;41253;46.856;-71.574;2022-08-18T15:41:00;2.83;;;2.30;;
52790;SDS011;41253;46.856;-71.574;2022-08-18T15:43:28;2.05;;;1.80;;
52790;SDS011;41253;46.856;-71.574;2022-08-18T15:45:57;3.83;;;2.08;;
52790;SDS011;41253;46.856;-71.574;2022-08-18T15:48:25;2.25;;;2.05;;
52790;SDS011;41253;46.856;-71.574;2022-08-18T15:50:54;3.92;;;2.60;;
52790;SDS011;41253;46.856;-71.574;2022-08-18T15:53:21;2.70;;;2.20;;
52790;SDS011;41253;46.856;-71.574;2022-08-18T15:55:50;2.88;;;2.50;;
52790;SDS011;41253;46.856;-71.574;2022-08-18T15:58:17;3.30;;;2.63;;
52790;SDS011;41253;46.856;-71.574;2022-08-18T16:00:44;3.38;;;2.58;;
52790;SDS011;41253;46.856;-71.574;2022-08-18T16:03:13;4.97;;;3.10;;
52790;SDS011;41253;46.856;-71.574;2022-08-18T16:05:45;2.78;;;2.13;;
52790;SDS011;41253;46.856;-71.574;2022-08-18T16:08:16;2.95;;;2.42;;
52790;SDS011;41253;46.856;-71.574;2022-08-18T16:10:43;2.40;;;2.20;;
52790;SDS011;41253;46.856;-71.574;2022-08-18T16:13:11;3.13;;;1.80;;
52790;SDS011;41253;46.856;-71.574;2022-08-18T16:15:40;2.60;;;1.95;;
52790;SDS011;41253;46.856;-71.574;2022-08-18T16:18:11;3.92;;;1.75;;
52790;SDS011;41253;46.856;-71.574;2022-08-18T16:20:37;3.75;;;2.25;;
52790;SDS011;41253;46.856;-71.574;2022-08-18T16:23:04;2.40;;;1.63;;
52790;SDS011;41253;46.856;-71.574;2022-08-18T16:25:31;2.15;;;1.80;;
52790;SDS011;41253;46.856;-71.574;2022-08-18T16:27:58;1.75;;;1.65;;
52790;SDS011;41253;46.856;-71.574;2022-08-18T16:30:25;2.70;;;1.90;;
52790;SDS011;41253;46.856;-71.574;2022-08-18T16:32:53;2.08;;;1.70;;
52790;SDS011;41253;46.856;-71.574;2022-08-18T16:35:20;3.25;;;1.73;;
52790;SDS011;41253;46.856;-71.574;2022-08-18T16:37:47;1.92;;;1.73;;
52790;SDS011;41253;46.856;-71.574;2022-08-18T16:40:14;3.00;;;1.70;;
52790;SDS011;41253;46.856;-71.574;2022-08-18T16:42:42;2.78;;;2.00;;
52790;SDS011;41253;46.856;-71.574;2022-08-18T16:45:09;2.55;;;1.90;;
52790;SDS011;41253;46.856;-71.574;2022-08-18T16:47:36;2.28;;;1.50;;
52790;SDS011;41253;46.856;-71.574;2022-08-18T16:50:09;2.28;;;1.90;;
52790;SDS011;41253;46.856;-71.574;2022-08-18T16:52:38;4.57;;;2.08;;
52790;SDS011;41253;46.856;-71.574;2022-08-18T16:55:06;2.78;;;1.70;;
52790;SDS011;41253;46.856;-71.574;2022-08-18T16:57:37;2.28;;;1.92;;
52790;SDS011;41253;46.856;-71.574;2022-08-18T17:00:22;2.53;;;1.90;;
52790;SDS011;41253;46.856;-71.574;2022-08-18T17:03:08;2.60;;;1.90;;
52790;SDS011;41253;46.856;-71.574;2022-08-18T17:06:04;1.95;;;1.63;;
52790;SDS011;41253;46.856;-71.574;2022-08-18T17:08:36;4.20;;;1.90;;
52790;SDS011;41253;46.856;-71.574;2022-08-18T17:11:04;2.45;;;1.90;;
52790;SDS011;41253;46.856;-71.574;2022-08-18T17:13:34;2.75;;;1.55;;
52790;SDS011;41253;46.856;-71.574;2022-08-18T17:16:01;2.17;;;1.52;;
52790;SDS011;41253;46.856;-71.574;2022-08-18T17:18:28;2.65;;;1.50;;
52790;SDS011;41253;46.856;-71.574;2022-08-18T17:20:55;3.28;;;1.75;;
52790;SDS011;41253;46.856;-71.574;2022-08-18T17:23:25;1.98;;;1.30;;
52790;SDS011;41253;46.856;-71.574;2022-08-18T17:25:52;1.73;;;1.38;;
52790;SDS011;41253;46.856;-71.574;2022-08-18T17:28:19;2.17;;;1.35;;